createdAt,value
2023-02-17T00:01:15.160Z,11.20
2023-02-17T00:03:43.168Z,11.20
2023-02-17T00:06:12.481Z,11.20
2023-02-17T00:08:41.702Z,11.20
2023-02-17T00:11:09.734Z,11.20
2023-02-17T00:13:37.747Z,11.30
2023-02-17T00:16:09.006Z,11.30
2023-02-17T00:18:37.309Z,11.30
2023-02-17T00:21:16.755Z,11.40
2023-02-17T00:23:47.339Z,11.40
2023-02-17T00:26:15.713Z,11.40
2023-02-17T00:28:43.711Z,11.40
2023-02-17T00:31:15.331Z,11.50
2023-02-17T00:33:43.492Z,11.50
2023-02-17T00:36:14.686Z,11.60
2023-02-17T00:38:42.660Z,11.60
2023-02-17T00:41:11.862Z,11.60
2023-02-17T00:43:39.736Z,11.60
2023-02-17T00:46:08.107Z,11.60
2023-02-17T00:48:36.218Z,11.60
2023-02-17T00:51:04.667Z,11.60
2023-02-17T00:53:32.865Z,11.70
2023-02-17T00:56:00.781Z,11.70
2023-02-17T00:58:30.030Z,11.70
2023-02-17T01:00:58.532Z,11.70
2023-02-17T01:03:27.329Z,11.70
2023-02-17T01:05:55.952Z,11.70
2023-02-17T01:08:25.696Z,11.70
2023-02-17T01:10:54.686Z,11.70
2023-02-17T01:13:22.646Z,11.70
2023-02-17T01:15:53.843Z,11.70
2023-02-17T01:18:24.104Z,11.70
2023-02-17T01:20:52.718Z,11.70
2023-02-17T01:23:21.015Z,11.70
2023-02-17T01:25:50.689Z,11.70
2023-02-17T01:28:21.326Z,11.70
2023-02-17T01:30:50.931Z,11.70
2023-02-17T01:33:18.924Z,11.70
2023-02-17T01:35:46.832Z,11.70
2023-02-17T01:38:14.918Z,11.70
2023-02-17T01:40:48.236Z,11.70
2023-02-17T01:43:18.322Z,11.70
2023-02-17T01:45:50.241Z,11.70
2023-02-17T01:48:22.307Z,11.70
2023-02-17T01:50:54.596Z,11.70
2023-02-17T01:53:29.330Z,11.70
2023-02-17T01:55:57.965Z,11.70
2023-02-17T01:58:27.644Z,11.70
2023-02-17T02:01:00.179Z,11.70
2023-02-17T02:03:31.375Z,11.70
2023-02-17T02:06:00.235Z,11.70
2023-02-17T02:08:31.165Z,11.70
2023-02-17T02:10:59.069Z,11.70
2023-02-17T02:13:27.022Z,11.70
2023-02-17T02:16:02.591Z,11.70
2023-02-17T02:18:45.702Z,11.70
2023-02-17T02:21:57.289Z,11.70
2023-02-17T02:24:34.187Z,11.70
2023-02-17T02:27:52.948Z,11.70
2023-02-17T02:30:57.601Z,11.70
2023-02-17T02:33:34.200Z,11.70
2023-02-17T02:36:10.903Z,11.60
2023-02-17T02:38:43.065Z,11.70
2023-02-17T02:41:15.632Z,11.70
2023-02-17T02:43:44.158Z,11.70
2023-02-17T02:46:12.642Z,11.70
2023-02-17T02:48:42.055Z,11.70
2023-02-17T02:51:22.712Z,11.70
2023-02-17T02:54:05.061Z,11.70
2023-02-17T02:56:43.122Z,11.70
2023-02-17T02:59:25.009Z,11.70
2023-02-17T03:02:01.949Z,11.70
2023-02-17T03:04:36.221Z,11.70
2023-02-17T03:07:09.643Z,11.70
2023-02-17T03:09:38.108Z,11.70
2023-02-17T03:12:07.117Z,11.70
2023-02-17T03:14:39.247Z,11.70
2023-02-17T03:17:07.190Z,11.70
2023-02-17T03:19:36.680Z,11.70
2023-02-17T03:22:11.091Z,11.60
2023-02-17T03:24:38.986Z,11.60
2023-02-17T03:27:07.061Z,11.60
2023-02-17T03:29:35.036Z,11.60
2023-02-17T03:32:03.384Z,11.60
2023-02-17T03:34:31.389Z,11.60
2023-02-17T03:37:00.644Z,11.60
2023-02-17T03:39:28.605Z,11.60
2023-02-17T03:41:56.494Z,11.60
2023-02-17T03:44:24.557Z,11.60
2023-02-17T03:46:52.443Z,11.60
2023-02-17T03:49:20.597Z,11.60
2023-02-17T03:51:48.484Z,11.50
2023-02-17T03:54:17.726Z,11.50
2023-02-17T03:56:45.651Z,11.60
2023-02-17T03:59:13.573Z,11.60
2023-02-17T04:01:41.561Z,11.50
2023-02-17T04:04:09.758Z,11.60
2023-02-17T04:06:38.280Z,11.60
2023-02-17T04:09:06.163Z,11.60
2023-02-17T04:11:35.506Z,11.60
2023-02-17T04:14:03.449Z,11.60
2023-02-17T04:16:31.344Z,11.60
2023-02-17T04:18:59.170Z,11.60
2023-02-17T04:21:27.105Z,11.60
2023-02-17T04:23:55.454Z,11.60
2023-02-17T04:26:23.325Z,11.60
2023-02-17T04:28:52.597Z,11.60
2023-02-17T04:31:20.522Z,11.60
2023-02-17T04:33:48.441Z,11.60
2023-02-17T04:36:16.720Z,11.60
2023-02-17T04:38:44.636Z,11.60
2023-02-17T04:41:13.246Z,11.60
2023-02-17T04:43:41.189Z,11.60
2023-02-17T04:46:11.943Z,11.60
2023-02-17T04:48:40.159Z,11.60
2023-02-17T04:51:08.128Z,11.60
2023-02-17T04:53:35.980Z,11.60
2023-02-17T04:56:04.046Z,11.60
2023-02-17T04:58:32.917Z,11.60
2023-02-17T05:01:01.588Z,11.60
2023-02-17T05:03:30.847Z,11.60
2023-02-17T05:05:58.846Z,11.60
2023-02-17T05:08:26.757Z,11.60
2023-02-17T05:10:54.752Z,11.60
2023-02-17T05:13:22.894Z,11.60
2023-02-17T05:15:50.810Z,11.60
2023-02-17T05:18:18.750Z,11.60
2023-02-17T05:20:48.256Z,11.60
2023-02-17T05:23:16.210Z,11.60
2023-02-17T05:25:44.175Z,11.60
2023-02-17T05:28:12.207Z,11.60
2023-02-17T05:30:40.169Z,11.60
2023-02-17T05:33:08.116Z,11.60
2023-02-17T05:35:36.471Z,11.60
2023-02-17T05:38:05.705Z,11.60
2023-02-17T05:40:33.872Z,11.60
2023-02-17T05:43:01.734Z,11.60
2023-02-17T05:45:29.754Z,11.60
2023-02-17T05:47:57.765Z,11.60
2023-02-17T05:50:25.686Z,11.60
2023-02-17T05:52:53.599Z,11.50
2023-02-17T05:55:23.223Z,11.50
2023-02-17T05:57:51.145Z,11.50
2023-02-17T06:00:19.203Z,11.50
2023-02-17T06:02:47.222Z,11.50
2023-02-17T06:05:15.265Z,11.50
2023-02-17T06:07:43.713Z,11.50
2023-02-17T06:10:12.350Z,11.50
2023-02-17T06:12:41.973Z,11.50
2023-02-17T06:15:10.385Z,11.50
2023-02-17T06:17:38.277Z,11.50
2023-02-17T06:20:07.626Z,11.50
2023-02-17T06:22:35.487Z,11.50
2023-02-17T06:25:03.343Z,11.50
2023-02-17T06:27:31.250Z,11.50
2023-02-17T06:30:00.605Z,11.50
2023-02-17T06:32:28.730Z,11.50
2023-02-17T06:34:56.804Z,11.50
2023-02-17T06:37:24.713Z,11.50
2023-02-17T06:39:52.596Z,11.50
2023-02-17T06:42:20.563Z,11.50
2023-02-17T06:44:48.630Z,11.50
2023-02-17T06:47:18.057Z,11.50
2023-02-17T06:49:46.104Z,11.50
2023-02-17T06:52:14.187Z,11.60
2023-02-17T06:54:42.068Z,11.50
2023-02-17T06:57:09.918Z,11.50
2023-02-17T06:59:37.954Z,11.50
2023-02-17T07:02:06.033Z,11.50
2023-02-17T07:04:35.336Z,11.50
2023-02-17T07:07:03.211Z,11.50
2023-02-17T07:09:31.101Z,11.50
2023-02-17T07:11:59.039Z,11.50
2023-02-17T07:14:27.617Z,11.60
2023-02-17T07:16:55.600Z,11.50
2023-02-17T07:19:23.462Z,11.60
2023-02-17T07:21:52.694Z,11.60
2023-02-17T07:24:20.814Z,11.60
2023-02-17T07:26:49.377Z,11.60
2023-02-17T07:29:17.282Z,11.60
2023-02-17T07:31:45.170Z,11.60
2023-02-17T07:34:13.204Z,11.60
2023-02-17T07:36:41.168Z,11.60
2023-02-17T07:39:10.416Z,11.60
2023-02-17T07:41:38.294Z,11.60
2023-02-17T07:44:06.548Z,11.60
2023-02-17T07:46:34.454Z,11.70
2023-02-17T07:49:02.393Z,11.70
2023-02-17T07:51:30.321Z,11.70
2023-02-17T07:53:58.283Z,11.70
2023-02-17T07:56:29.959Z,11.70
2023-02-17T07:58:57.903Z,11.70
2023-02-17T08:01:26.782Z,11.80
2023-02-17T08:03:55.011Z,11.80
2023-02-17T08:06:25.343Z,11.80
2023-02-17T08:09:12.282Z,11.80
2023-02-17T08:12:00.232Z,11.80
2023-02-17T08:14:30.499Z,11.90
2023-02-17T08:16:58.846Z,11.80
2023-02-17T08:19:39.478Z,11.80
2023-02-17T08:22:14.340Z,11.90
2023-02-17T08:24:42.400Z,11.90
2023-02-17T08:27:11.681Z,11.90
2023-02-17T08:29:39.646Z,11.90
2023-02-17T08:32:07.959Z,11.90
2023-02-17T08:34:35.987Z,12.00
2023-02-17T08:37:05.664Z,12.00
2023-02-17T08:39:34.660Z,12.20
2023-02-17T08:42:03.120Z,12.20
2023-02-17T08:44:34.398Z,12.30
2023-02-17T08:47:02.755Z,12.30
2023-02-17T08:49:32.460Z,12.40
2023-02-17T08:52:00.633Z,12.40
2023-02-17T08:54:29.417Z,12.40
2023-02-17T08:56:58.527Z,12.40
2023-02-17T08:59:26.464Z,12.40
2023-02-17T09:01:55.832Z,12.50
2023-02-17T09:04:23.978Z,12.50
2023-02-17T09:06:55.994Z,12.50
2023-02-17T09:09:27.818Z,12.50
2023-02-17T09:11:56.252Z,12.50
2023-02-17T09:14:25.045Z,12.50
2023-02-17T09:16:53.605Z,12.60
2023-02-17T09:19:23.796Z,12.70
2023-02-17T09:21:51.739Z,12.70
2023-02-17T09:24:20.570Z,12.80
2023-02-17T09:26:48.681Z,12.70
2023-02-17T09:29:16.690Z,12.70
2023-02-17T09:31:46.126Z,12.70
2023-02-17T09:34:15.185Z,12.70
2023-02-17T09:36:44.492Z,12.70
2023-02-17T09:39:14.151Z,12.60
2023-02-17T09:41:45.044Z,12.50
2023-02-17T09:44:21.686Z,12.50
2023-02-17T09:47:01.729Z,12.50
2023-02-17T09:49:36.010Z,12.40
2023-02-17T09:52:12.617Z,12.40
2023-02-17T09:54:50.164Z,12.40
2023-02-17T09:57:21.024Z,12.40
2023-02-17T09:59:53.624Z,12.40
2023-02-17T10:02:28.615Z,12.40
2023-02-17T10:04:58.624Z,12.50
2023-02-17T10:07:31.753Z,12.40
2023-02-17T10:10:06.492Z,12.50
2023-02-17T10:12:39.140Z,12.50
2023-02-17T10:15:13.440Z,12.60
2023-02-17T10:17:47.465Z,12.70
2023-02-17T10:20:19.152Z,12.80
2023-02-17T10:22:53.168Z,12.80
2023-02-17T10:25:32.231Z,12.90
2023-02-17T10:28:09.035Z,12.90
2023-02-17T10:30:46.922Z,13.00
2023-02-17T10:33:22.828Z,13.00
2023-02-17T10:35:53.017Z,13.00
2023-02-17T10:38:40.384Z,13.10
2023-02-17T10:41:13.524Z,13.10
2023-02-17T10:43:44.080Z,13.20
2023-02-17T10:46:15.449Z,13.20
2023-02-17T10:48:48.892Z,13.30
2023-02-17T10:51:19.649Z,13.40
2023-02-17T10:53:52.085Z,13.50
2023-02-17T10:56:26.389Z,13.60
2023-02-17T10:58:59.463Z,13.80
2023-02-17T11:01:28.893Z,14.10
2023-02-17T11:04:05.587Z,14.30
2023-02-17T11:06:37.730Z,14.50
2023-02-17T11:09:17.188Z,14.60
2023-02-17T11:11:53.495Z,15.10
2023-02-17T11:14:27.107Z,15.70
2023-02-17T11:16:59.343Z,16.50
2023-02-17T11:19:29.960Z,17.80
2023-02-17T11:21:59.801Z,18.90
2023-02-17T11:24:31.739Z,19.00
2023-02-17T11:27:02.098Z,19.40
2023-02-17T11:29:31.820Z,19.50
2023-02-17T11:32:01.830Z,19.10
2023-02-17T11:34:32.917Z,18.70
2023-02-17T11:37:03.615Z,18.10
2023-02-17T11:39:39.191Z,17.50
2023-02-17T11:42:16.597Z,17.00
2023-02-17T11:44:44.598Z,16.40
2023-02-17T11:47:26.329Z,16.10
2023-02-17T11:50:39.081Z,15.70
2023-02-17T11:53:21.286Z,15.50
2023-02-17T11:56:03.252Z,15.30
2023-02-17T11:58:43.870Z,15.30
2023-02-17T12:01:39.950Z,15.20
2023-02-17T12:04:32.810Z,15.10
2023-02-17T12:07:37.453Z,15.00
2023-02-17T12:10:13.906Z,14.80
2023-02-17T12:12:58.776Z,14.60
2023-02-17T12:15:35.806Z,14.50
2023-02-17T12:18:15.129Z,14.40
2023-02-17T12:20:51.510Z,14.40
2023-02-17T12:23:42.075Z,14.30
2023-02-17T12:26:18.146Z,14.30
2023-02-17T12:29:12.374Z,14.30
2023-02-17T12:32:01.039Z,14.30
2023-02-17T12:34:33.174Z,14.30
2023-02-17T12:37:02.119Z,14.20
2023-02-17T12:39:34.954Z,14.20
2023-02-17T12:42:11.428Z,14.20
2023-02-17T12:44:43.441Z,14.10
2023-02-17T12:47:16.751Z,14.10
2023-02-17T12:49:50.205Z,14.00
2023-02-17T12:52:23.445Z,14.00
2023-02-17T12:54:56.493Z,14.00
2023-02-17T12:57:28.941Z,13.90
2023-02-17T12:59:59.846Z,13.90
2023-02-17T13:02:27.929Z,13.90
2023-02-17T13:04:59.241Z,14.00
2023-02-17T13:07:52.294Z,14.00
2023-02-17T13:10:28.798Z,14.10
2023-02-17T13:13:01.779Z,14.10
2023-02-17T13:15:34.985Z,14.10
2023-02-17T13:18:05.288Z,14.10
2023-02-17T13:20:55.160Z,14.10
2023-02-17T13:23:34.772Z,14.10
2023-02-17T13:26:16.806Z,14.10
2023-02-17T13:28:45.506Z,14.10
2023-02-17T13:31:18.441Z,14.10
2023-02-17T13:33:52.276Z,14.10
2023-02-17T13:36:23.824Z,14.00
2023-02-17T13:39:01.633Z,14.00
2023-02-17T13:41:33.936Z,14.00
2023-02-17T13:44:19.615Z,14.00
2023-02-17T13:46:49.321Z,14.00
2023-02-17T13:49:24.514Z,14.00
2023-02-17T13:51:52.543Z,14.00
2023-02-17T13:54:22.735Z,14.10
2023-02-17T13:56:56.056Z,14.10
2023-02-17T13:59:27.997Z,14.10
2023-02-17T14:01:57.162Z,14.00
2023-02-17T14:04:27.862Z,14.00
2023-02-17T14:06:58.619Z,14.00
2023-02-17T14:09:28.645Z,14.00
2023-02-17T14:11:57.901Z,14.00
2023-02-17T14:14:29.688Z,14.10
2023-02-17T14:17:04.819Z,14.20
2023-02-17T14:19:43.204Z,14.20
2023-02-17T14:22:26.365Z,14.30
2023-02-17T14:25:05.858Z,14.30
2023-02-17T14:27:43.517Z,14.30
2023-02-17T14:30:15.449Z,14.30
2023-02-17T14:32:44.961Z,14.30
2023-02-17T14:35:24.093Z,14.30
2023-02-17T14:37:52.141Z,14.30
2023-02-17T14:40:23.257Z,14.30
2023-02-17T14:42:51.889Z,14.30
2023-02-17T14:45:20.317Z,14.40
2023-02-17T14:47:49.686Z,14.50
2023-02-17T14:50:18.069Z,14.70
2023-02-17T14:52:47.985Z,14.80
2023-02-17T14:55:23.311Z,14.90
2023-02-17T14:57:51.410Z,14.90
2023-02-17T15:00:20.349Z,14.90
2023-02-17T15:02:51.297Z,14.80
2023-02-17T15:05:19.590Z,14.80
2023-02-17T15:07:47.800Z,14.80
2023-02-17T15:10:20.481Z,14.80
2023-02-17T15:12:48.650Z,14.70
2023-02-17T15:15:18.252Z,14.70
2023-02-17T15:17:46.280Z,14.60
2023-02-17T15:20:17.547Z,14.50
2023-02-17T15:22:45.663Z,14.40
2023-02-17T15:25:15.611Z,14.40
2023-02-17T15:27:44.049Z,14.30
2023-02-17T15:30:13.378Z,14.30
2023-02-17T15:32:41.547Z,14.20
2023-02-17T15:35:21.683Z,14.20
2023-02-17T15:37:49.807Z,14.10
2023-02-17T15:40:19.890Z,14.10
2023-02-17T15:42:51.489Z,14.10
2023-02-17T15:45:20.415Z,14.00
2023-02-17T15:47:49.329Z,14.00
2023-02-17T15:50:23.029Z,13.90
2023-02-17T15:52:51.893Z,13.90
2023-02-17T15:55:20.718Z,13.90
2023-02-17T15:57:51.138Z,13.90
2023-02-17T16:00:24.609Z,13.80
2023-02-17T16:02:53.208Z,13.80
2023-02-17T16:05:23.954Z,13.80
2023-02-17T16:07:51.882Z,13.80
2023-02-17T16:10:22.883Z,13.70
2023-02-17T16:12:52.760Z,13.70
2023-02-17T16:15:23.096Z,13.70
2023-02-17T16:17:52.004Z,13.70
2023-02-17T16:20:23.127Z,13.60
2023-02-17T16:22:51.539Z,13.60
2023-02-17T16:25:21.288Z,13.60
2023-02-17T16:27:51.187Z,13.50
2023-02-17T16:30:21.993Z,13.50
2023-02-17T16:32:50.576Z,13.50
2023-02-17T16:35:20.085Z,13.50
2023-02-17T16:37:55.056Z,13.50
2023-02-17T16:40:25.589Z,13.50
2023-02-17T16:42:53.998Z,13.50
2023-02-17T16:45:23.572Z,13.50
2023-02-17T16:47:52.899Z,13.50
2023-02-17T16:50:25.008Z,13.50
2023-02-17T16:52:56.102Z,13.50
2023-02-17T16:55:25.876Z,13.50
2023-02-17T16:57:53.813Z,13.50
2023-02-17T17:00:23.960Z,13.50
2023-02-17T17:02:52.108Z,13.50
2023-02-17T17:05:20.855Z,13.50
2023-02-17T17:07:49.011Z,13.50
2023-02-17T17:10:20.708Z,13.50
2023-02-17T17:12:48.669Z,13.60
2023-02-17T17:15:17.709Z,13.50
2023-02-17T17:17:49.261Z,13.60
2023-02-17T17:20:18.888Z,13.60
2023-02-17T17:22:47.433Z,13.60
2023-02-17T17:25:15.648Z,13.60
2023-02-17T17:27:45.939Z,13.60
2023-02-17T17:30:18.581Z,13.60
2023-02-17T17:32:47.036Z,13.60
2023-02-17T17:35:15.487Z,13.60
2023-02-17T17:37:43.598Z,13.60
2023-02-17T17:40:17.493Z,13.60
2023-02-17T17:42:46.886Z,13.60
2023-02-17T17:45:16.091Z,13.60
2023-02-17T17:47:44.283Z,13.60
2023-02-17T17:50:17.244Z,13.60
2023-02-17T17:52:45.544Z,13.60
2023-02-17T17:55:13.986Z,13.60
2023-02-17T17:57:42.628Z,13.60
2023-02-17T18:00:14.967Z,13.60
2023-02-17T18:02:43.330Z,13.60
2023-02-17T18:05:12.317Z,13.60
2023-02-17T18:07:41.387Z,13.60
2023-02-17T18:10:10.819Z,13.60
2023-02-17T18:12:39.751Z,13.60
2023-02-17T18:15:08.970Z,13.60
2023-02-17T18:17:41.291Z,13.60
2023-02-17T18:20:11.890Z,13.60
2023-02-17T18:22:40.232Z,13.60
2023-02-17T18:25:08.720Z,13.60
2023-02-17T18:27:41.397Z,13.60
2023-02-17T18:30:10.968Z,13.50
2023-02-17T18:32:40.215Z,13.60
2023-02-17T18:35:08.839Z,13.60
2023-02-17T18:37:36.843Z,13.50
2023-02-17T18:40:06.128Z,13.50
2023-02-17T18:42:34.358Z,13.50
2023-02-17T18:45:02.291Z,13.50
2023-02-17T18:47:31.263Z,13.50
2023-02-17T18:50:00.495Z,13.50
2023-02-17T18:52:28.560Z,13.50
2023-02-17T18:54:56.481Z,13.50
2023-02-17T18:57:24.448Z,13.50
2023-02-17T18:59:52.364Z,13.50
2023-02-17T19:02:21.968Z,13.50
2023-02-17T19:04:52.847Z,13.50
2023-02-17T19:07:22.631Z,13.50
2023-02-17T19:09:52.971Z,13.50
2023-02-17T19:12:20.964Z,13.50
2023-02-17T19:14:53.126Z,13.50
2023-02-17T19:17:21.116Z,13.50
2023-02-17T19:19:49.272Z,13.40
2023-02-17T19:22:17.513Z,13.40
2023-02-17T19:24:51.137Z,13.40
2023-02-17T19:27:19.097Z,13.40
2023-02-17T19:29:47.433Z,13.40
2023-02-17T19:32:15.534Z,13.40
2023-02-17T19:34:43.527Z,13.40
2023-02-17T19:37:11.485Z,13.40
2023-02-17T19:39:39.520Z,13.40
2023-02-17T19:42:09.162Z,13.40
2023-02-17T19:44:37.094Z,13.40
2023-02-17T19:47:05.100Z,13.40
2023-02-17T19:49:34.792Z,13.40
2023-02-17T19:52:02.723Z,13.40
2023-02-17T19:54:30.632Z,13.40
2023-02-17T19:56:58.623Z,13.30
2023-02-17T19:59:28.039Z,13.30
2023-02-17T20:01:56.124Z,13.30
2023-02-17T20:04:23.987Z,13.30
2023-02-17T20:06:52.752Z,13.30
2023-02-17T20:09:23.317Z,13.30
2023-02-17T20:11:53.097Z,13.20
2023-02-17T20:14:22.335Z,13.20
2023-02-17T20:16:53.430Z,13.20
2023-02-17T20:19:21.472Z,13.10
2023-02-17T20:21:49.456Z,13.10
2023-02-17T20:24:18.273Z,13.10
2023-02-17T20:26:48.451Z,13.10
2023-02-17T20:29:16.399Z,13.00
2023-02-17T20:31:44.819Z,13.00
2023-02-17T20:34:26.980Z,13.00
2023-02-17T20:36:54.995Z,13.00
2023-02-17T20:39:23.371Z,12.90
2023-02-17T20:41:51.298Z,13.00
2023-02-17T20:44:19.942Z,12.90
2023-02-17T20:46:49.099Z,12.90
2023-02-17T20:49:17.044Z,12.90
2023-02-17T20:51:46.499Z,12.90
2023-02-17T20:54:14.650Z,12.90
2023-02-17T20:56:46.137Z,12.90
2023-02-17T20:59:14.787Z,12.80
2023-02-17T21:01:43.778Z,12.80
2023-02-17T21:04:14.110Z,12.80
2023-02-17T21:06:43.226Z,12.80
2023-02-17T21:09:15.722Z,12.80
2023-02-17T21:11:43.989Z,12.90
2023-02-17T21:14:12.175Z,12.90
2023-02-17T21:16:40.413Z,12.90
2023-02-17T21:19:08.347Z,12.90
2023-02-17T21:21:36.546Z,12.90
2023-02-17T21:24:04.874Z,12.90
2023-02-17T21:26:35.159Z,12.90
2023-02-17T21:29:03.439Z,13.00
2023-02-17T21:31:31.921Z,12.90
2023-02-17T21:34:00.944Z,13.00
2023-02-17T21:36:29.600Z,13.00
2023-02-17T21:38:57.678Z,13.00
2023-02-17T21:41:27.697Z,13.00
2023-02-17T21:44:14.672Z,13.00
2023-02-17T21:46:43.320Z,13.00
2023-02-17T21:49:12.454Z,13.00
2023-02-17T21:51:41.409Z,13.00
2023-02-17T21:54:10.450Z,13.00
2023-02-17T21:56:38.665Z,13.00
2023-02-17T21:59:08.940Z,13.00
2023-02-17T22:01:37.007Z,13.00
2023-02-17T22:04:05.558Z,13.00
2023-02-17T22:06:36.081Z,13.00
2023-02-17T22:09:05.954Z,13.00
2023-02-17T22:11:36.151Z,13.00
2023-02-17T22:14:06.411Z,13.00
2023-02-17T22:16:37.349Z,13.00
2023-02-17T22:19:07.295Z,13.00
2023-02-17T22:21:35.447Z,13.00
2023-02-17T22:24:03.940Z,13.00
2023-02-17T22:26:32.510Z,13.00
2023-02-17T22:29:00.436Z,13.00
2023-02-17T22:31:31.323Z,12.90
2023-02-17T22:34:03.313Z,13.00
2023-02-17T22:36:34.507Z,12.90
2023-02-17T22:39:03.189Z,12.90
2023-02-17T22:41:31.304Z,13.00
2023-02-17T22:44:00.637Z,12.90
2023-02-17T22:46:28.697Z,12.90
2023-02-17T22:48:58.020Z,13.00
2023-02-17T22:51:29.205Z,13.00
2023-02-17T22:53:57.369Z,13.00
2023-02-17T22:56:25.455Z,13.00
2023-02-17T22:58:56.441Z,13.00
2023-02-17T23:01:25.316Z,12.90
2023-02-17T23:03:54.950Z,12.90
2023-02-17T23:06:26.244Z,12.90
2023-02-17T23:08:56.326Z,13.00
2023-02-17T23:11:41.943Z,12.90
2023-02-17T23:14:10.660Z,12.90
2023-02-17T23:16:38.855Z,12.90
2023-02-17T23:19:08.177Z,12.90
2023-02-17T23:21:36.608Z,12.90
2023-02-17T23:24:06.280Z,12.90
2023-02-17T23:26:34.279Z,12.90
2023-02-17T23:29:02.225Z,12.90
2023-02-17T23:31:30.340Z,12.90
2023-02-17T23:33:58.352Z,12.90
2023-02-17T23:36:26.311Z,12.90
2023-02-17T23:38:55.597Z,12.90
2023-02-17T23:41:24.968Z,12.80
2023-02-17T23:43:52.880Z,12.80
2023-02-17T23:46:21.362Z,12.80
2023-02-17T23:48:49.385Z,12.80
2023-02-17T23:51:18.973Z,12.80
2023-02-17T23:53:47.229Z,12.80
2023-02-17T23:56:17.422Z,12.80
2023-02-17T23:58:46.724Z,12.70
